Terminal Aerodrome Forecast
Issued by NWS

Home | Current Version | Previous Version | Text Only | Print | Product List | Glossary On
Versions: 1 2 3 4 5 6 7 8 9 10 11 12 13 14 15 16 17
644
FTUS46 KSGX 250443 AAA
TAFPSP
TAF AMD
KPSP 250443Z 2505/2524 14010KT P6SM SCT200
     FM250700 VRB05KT P6SM SCT200
     FM252300 33010KT P6SM SCT200=

USA.gov is the U.S. government's official web portal to all federal, state and local government web resources and services.